createdAt,value
2022-10-30T00:00:46.018Z,14.90
2022-10-30T00:03:14.126Z,13.38
2022-10-30T00:05:43.701Z,14.02
2022-10-30T00:08:12.979Z,13.93
2022-10-30T00:10:40.740Z,13.53
2022-10-30T00:13:08.578Z,13.15
2022-10-30T00:15:37.952Z,13.90
2022-10-30T00:18:05.797Z,13.65
2022-10-30T00:20:33.535Z,12.82
2022-10-30T00:23:01.533Z,13.05
2022-10-30T00:25:29.549Z,14.20
2022-10-30T00:27:57.217Z,13.90
2022-10-30T00:30:25.042Z,13.60
2022-10-30T00:32:54.193Z,14.27
2022-10-30T00:35:22.068Z,14.30
2022-10-30T00:37:49.748Z,13.80
2022-10-30T00:40:18.563Z,13.52
2022-10-30T00:42:46.456Z,13.10
2022-10-30T00:45:14.833Z,13.10
2022-10-30T00:47:44.208Z,13.80
2022-10-30T00:50:14.929Z,13.68
2022-10-30T00:52:45.728Z,15.80
2022-10-30T00:55:16.803Z,13.65
2022-10-30T00:57:45.020Z,13.90
2022-10-30T01:00:13.775Z,14.10
2022-10-30T01:02:42.641Z,14.20
2022-10-30T01:07:44.637Z,13.48
2022-10-30T01:10:13.276Z,13.20
2022-10-30T01:12:41.706Z,13.65
2022-10-30T01:15:09.747Z,14.57
2022-10-30T01:17:46.518Z,14.57
2022-10-30T01:20:23.478Z,14.30
2022-10-30T01:22:57.620Z,14.90
2022-10-30T01:25:37.720Z,14.75
2022-10-30T01:28:13.095Z,18.48
2022-10-30T01:30:49.166Z,20.40
2022-10-30T01:33:24.792Z,23.13
2022-10-30T01:35:56.681Z,18.85
2022-10-30T01:38:28.951Z,18.58
2022-10-30T01:40:56.758Z,16.83
2022-10-30T01:43:25.389Z,16.70
2022-10-30T01:46:13.026Z,17.00
2022-10-30T01:48:57.133Z,15.93
2022-10-30T01:51:33.624Z,15.50
2022-10-30T01:54:10.404Z,15.00
2022-10-30T01:56:39.528Z,13.97
2022-10-30T01:59:10.407Z,15.75
2022-10-30T02:01:38.946Z,15.35
2022-10-30T02:04:08.669Z,15.73
2022-10-30T02:06:36.700Z,15.73
2022-10-30T02:09:07.077Z,14.52
2022-10-30T02:11:35.819Z,15.02
2022-10-30T02:14:05.138Z,14.50
2022-10-30T02:16:34.557Z,15.90
2022-10-30T02:19:03.310Z,14.90
2022-10-30T02:21:32.528Z,15.20
2022-10-30T02:24:00.253Z,14.85
2022-10-30T02:26:28.233Z,15.57
2022-10-30T02:28:55.990Z,14.70
2022-10-30T02:31:23.724Z,15.20
2022-10-30T02:33:52.106Z,14.40
2022-10-30T02:36:20.533Z,14.93
2022-10-30T02:38:50.486Z,14.40
2022-10-30T02:41:18.386Z,15.00
2022-10-30T02:43:46.152Z,14.25
2022-10-30T02:46:14.017Z,15.30
2022-10-30T02:48:41.728Z,15.00
2022-10-30T02:51:09.553Z,15.75
2022-10-30T02:53:38.668Z,15.32
2022-10-30T02:56:08.989Z,14.40
2022-10-30T02:58:36.793Z,15.48
2022-10-30T03:01:08.784Z,16.47
2022-10-30T03:03:36.663Z,15.80
2022-10-30T03:06:05.462Z,15.37
2022-10-30T03:08:33.379Z,15.45
2022-10-30T03:11:02.236Z,14.77
2022-10-30T03:13:32.485Z,14.50
2022-10-30T03:16:00.924Z,15.00
2022-10-30T03:18:29.792Z,13.38
2022-10-30T03:20:58.818Z,14.85
2022-10-30T03:23:29.613Z,13.82
2022-10-30T03:25:58.334Z,15.05
2022-10-30T03:28:27.232Z,14.35
2022-10-30T03:31:00.737Z,14.15
2022-10-30T03:33:28.865Z,14.40
2022-10-30T03:35:58.066Z,15.30
2022-10-30T03:38:25.896Z,15.60
2022-10-30T03:40:54.043Z,13.83
2022-10-30T03:43:24.433Z,14.00
2022-10-30T03:45:54.084Z,14.32
2022-10-30T03:48:24.004Z,14.70
2022-10-30T03:50:53.246Z,14.00
2022-10-30T03:53:23.156Z,14.55
2022-10-30T03:55:52.017Z,13.67
2022-10-30T03:58:19.743Z,15.60
2022-10-30T04:00:48.031Z,15.10
2022-10-30T04:03:15.790Z,13.90
2022-10-30T04:05:45.395Z,14.20
2022-10-30T04:08:14.418Z,13.70
2022-10-30T04:10:43.329Z,14.15
2022-10-30T04:13:12.581Z,14.50
2022-10-30T04:15:52.233Z,14.10
2022-10-30T04:18:24.036Z,14.25
2022-10-30T04:20:53.284Z,14.30
2022-10-30T04:23:21.857Z,14.30
2022-10-30T04:25:49.674Z,14.98
2022-10-30T04:28:17.781Z,15.00
2022-10-30T04:30:46.975Z,14.65
2022-10-30T04:33:16.948Z,14.80
2022-10-30T04:35:44.955Z,14.60
2022-10-30T04:38:19.098Z,15.82
2022-10-30T04:40:48.061Z,13.50
2022-10-30T04:43:16.708Z,14.60
2022-10-30T04:45:48.646Z,14.40
2022-10-30T04:48:17.523Z,14.30
2022-10-30T04:50:45.831Z,14.25
2022-10-30T04:53:22.369Z,13.70
2022-10-30T04:55:57.197Z,13.60
2022-10-30T04:58:25.217Z,13.90
2022-10-30T05:01:03.234Z,15.73
2022-10-30T05:03:32.326Z,14.85
2022-10-30T05:06:01.966Z,14.27
2022-10-30T05:08:31.622Z,14.63
2022-10-30T05:11:04.877Z,14.47
2022-10-30T05:13:32.673Z,14.67
2022-10-30T05:16:00.397Z,14.70
2022-10-30T05:18:28.170Z,15.50
2022-10-30T05:20:56.492Z,14.57
2022-10-30T05:23:24.432Z,14.82
2022-10-30T05:25:55.001Z,15.13
2022-10-30T05:28:25.262Z,14.40
2022-10-30T05:30:57.988Z,14.00
2022-10-30T05:33:45.976Z,14.50
2022-10-30T05:36:14.569Z,15.23
2022-10-30T05:38:43.364Z,13.80
2022-10-30T05:41:20.102Z,13.27
2022-10-30T05:43:48.318Z,12.77
2022-10-30T05:46:16.378Z,12.98
2022-10-30T05:48:44.261Z,13.32
2022-10-30T05:51:12.365Z,14.63
2022-10-30T05:53:44.298Z,15.30
2022-10-30T05:56:12.236Z,16.65
2022-10-30T05:58:41.339Z,16.13
2022-10-30T06:01:09.390Z,17.60
2022-10-30T06:03:44.628Z,16.77
2022-10-30T06:06:13.361Z,16.70
2022-10-30T06:08:41.183Z,16.75
2022-10-30T06:11:34.985Z,16.98
2022-10-30T06:14:04.749Z,16.02
2022-10-30T06:16:46.807Z,15.40
2022-10-30T06:19:23.341Z,15.27
2022-10-30T06:21:54.804Z,14.90
2022-10-30T06:24:27.456Z,15.45
2022-10-30T06:27:13.911Z,15.68
2022-10-30T06:29:43.153Z,16.55
2022-10-30T06:32:11.197Z,16.25
2022-10-30T06:34:39.785Z,14.60
2022-10-30T06:37:07.686Z,16.13
2022-10-30T06:39:35.787Z,16.58
2022-10-30T06:42:44.871Z,15.75
2022-10-30T06:45:27.281Z,16.13
2022-10-30T06:47:55.621Z,15.32
2022-10-30T06:50:24.363Z,16.47
2022-10-30T06:52:52.516Z,14.90
2022-10-30T06:55:20.253Z,15.67
2022-10-30T06:58:11.285Z,17.40
2022-10-30T07:01:05.679Z,16.85
2022-10-30T07:03:42.756Z,18.50
2022-10-30T07:06:10.695Z,18.47
2022-10-30T07:08:39.440Z,19.15
2022-10-30T07:11:07.661Z,18.92
2022-10-30T07:13:57.537Z,18.50
2022-10-30T07:16:38.726Z,19.45
2022-10-30T07:19:07.141Z,19.08
2022-10-30T07:21:35.372Z,18.53
2022-10-30T07:24:07.870Z,19.25
2022-10-30T07:26:54.439Z,19.17
2022-10-30T07:29:33.012Z,17.80
2022-10-30T07:32:27.041Z,20.43
2022-10-30T07:35:34.333Z,19.23
2022-10-30T07:38:17.730Z,25.98
2022-10-30T07:40:55.435Z,32.97
2022-10-30T07:43:43.618Z,34.58
2022-10-30T07:46:29.229Z,32.28
2022-10-30T07:49:25.194Z,30.35
2022-10-30T07:52:02.878Z,28.00
2022-10-30T07:54:30.716Z,32.13
2022-10-30T07:57:05.569Z,33.22
2022-10-30T07:59:55.022Z,37.97
2022-10-30T08:02:40.631Z,33.65
2022-10-30T08:05:30.384Z,34.03
2022-10-30T08:08:07.107Z,29.83
2022-10-30T08:10:35.301Z,30.98
2022-10-30T08:13:05.945Z,30.80
2022-10-30T08:15:35.592Z,30.80
2022-10-30T08:18:04.092Z,29.40
2022-10-30T08:20:34.137Z,29.88
2022-10-30T08:23:02.371Z,26.53
2022-10-30T08:25:31.585Z,26.27
2022-10-30T08:28:00.622Z,25.45
2022-10-30T08:30:34.787Z,24.83
2022-10-30T08:33:05.113Z,23.95
2022-10-30T08:35:53.662Z,22.52
2022-10-30T08:38:21.675Z,20.90
2022-10-30T08:41:00.284Z,19.98
2022-10-30T08:43:29.413Z,19.20
2022-10-30T08:45:58.625Z,21.10
2022-10-30T08:48:26.906Z,22.67
2022-10-30T08:51:01.344Z,21.67
2022-10-30T08:53:35.566Z,19.67
2022-10-30T08:56:08.688Z,19.98
2022-10-30T08:58:49.472Z,20.55
2022-10-30T09:01:17.311Z,30.50
2022-10-30T09:04:17.225Z,17.80
2022-10-30T09:07:18.524Z,20.42
2022-10-30T09:10:08.243Z,14.35
2022-10-30T09:12:38.052Z,16.35
2022-10-30T09:15:06.400Z,14.15
2022-10-30T09:17:44.092Z,15.93
2022-10-30T09:20:12.164Z,17.63
2022-10-30T09:22:43.306Z,19.98
2022-10-30T09:25:12.096Z,18.27
2022-10-30T09:27:48.694Z,18.17
2022-10-30T09:30:18.571Z,17.10
2022-10-30T09:32:58.056Z,14.83
2022-10-30T09:35:40.271Z,14.40
2022-10-30T09:38:10.310Z,15.90
2022-10-30T09:40:43.050Z,17.07
2022-10-30T09:43:16.744Z,15.65
2022-10-30T09:45:53.675Z,15.93
2022-10-30T09:48:33.451Z,16.23
2022-10-30T09:51:14.613Z,15.30
2022-10-30T09:53:50.513Z,15.10
2022-10-30T09:56:28.245Z,15.25
2022-10-30T09:59:18.757Z,16.50
2022-10-30T10:01:49.051Z,16.37
2022-10-30T10:04:26.625Z,17.17
2022-10-30T10:07:17.345Z,17.00
2022-10-30T10:10:02.778Z,15.60
2022-10-30T10:12:47.345Z,16.67
2022-10-30T10:15:18.381Z,16.10
2022-10-30T10:17:46.649Z,15.73
2022-10-30T10:20:17.188Z,15.73
2022-10-30T10:22:51.961Z,15.90
2022-10-30T10:25:21.844Z,15.52
2022-10-30T10:28:02.117Z,19.13
2022-10-30T10:30:48.723Z,18.38
2022-10-30T10:33:28.944Z,18.83
2022-10-30T10:36:12.592Z,17.20
2022-10-30T10:38:47.286Z,15.27
2022-10-30T10:41:20.427Z,14.13
2022-10-30T10:44:06.146Z,15.20
2022-10-30T10:46:44.712Z,15.43
2022-10-30T10:49:17.470Z,15.02
2022-10-30T10:51:48.742Z,13.83
2022-10-30T10:54:18.074Z,13.87
2022-10-30T10:56:51.268Z,12.95
2022-10-30T10:59:20.276Z,13.20
2022-10-30T11:01:55.775Z,12.60
2022-10-30T11:04:28.059Z,12.95
2022-10-30T11:06:56.687Z,11.32
2022-10-30T11:09:28.671Z,11.80
2022-10-30T11:11:57.830Z,10.38
2022-10-30T11:14:26.558Z,10.07
2022-10-30T11:17:03.608Z,9.50
2022-10-30T11:19:32.155Z,6.95
2022-10-30T11:22:00.076Z,6.20
2022-10-30T11:24:31.587Z,4.97
2022-10-30T11:27:16.502Z,4.28
2022-10-30T11:29:48.774Z,5.25
2022-10-30T11:32:19.135Z,5.50
2022-10-30T11:34:46.971Z,5.70
2022-10-30T11:37:30.096Z,5.13
2022-10-30T11:40:02.895Z,5.30
2022-10-30T11:42:32.338Z,4.10
2022-10-30T11:45:00.131Z,4.85
2022-10-30T11:47:31.875Z,4.35
2022-10-30T11:50:00.405Z,5.20
2022-10-30T11:52:28.433Z,4.83
2022-10-30T11:54:57.786Z,4.38
2022-10-30T11:57:29.603Z,4.57
2022-10-30T12:00:04.676Z,4.70
2022-10-30T12:02:42.326Z,4.57
2022-10-30T12:05:30.281Z,4.68
2022-10-30T12:08:12.408Z,5.00
2022-10-30T12:10:43.482Z,4.37
2022-10-30T12:13:15.904Z,4.70
2022-10-30T12:15:45.958Z,4.43
2022-10-30T12:18:18.325Z,5.67
2022-10-30T12:20:47.298Z,4.17
2022-10-30T12:23:18.106Z,3.88
2022-10-30T12:25:47.862Z,4.80
2022-10-30T12:28:19.679Z,4.60
2022-10-30T12:30:55.425Z,5.20
2022-10-30T12:33:26.146Z,5.30
2022-10-30T12:35:56.054Z,5.60
2022-10-30T12:38:32.200Z,5.67
2022-10-30T12:41:05.238Z,5.60
2022-10-30T12:43:33.874Z,5.63
2022-10-30T12:46:07.990Z,6.10
2022-10-30T12:48:38.669Z,6.00
2022-10-30T12:51:12.113Z,5.80
2022-10-30T12:53:43.765Z,5.40
2022-10-30T12:56:13.345Z,5.40
2022-10-30T12:58:45.736Z,11.85
2022-10-30T13:01:17.385Z,16.48
2022-10-30T13:03:50.232Z,11.47
2022-10-30T13:06:20.131Z,10.98
2022-10-30T13:08:56.456Z,8.52
2022-10-30T13:11:29.805Z,7.10
2022-10-30T13:13:59.315Z,6.50
2022-10-30T13:16:29.384Z,6.68
2022-10-30T13:18:57.666Z,6.53
2022-10-30T13:21:27.823Z,6.35
2022-10-30T13:23:57.734Z,7.20
2022-10-30T13:26:28.914Z,7.20
2022-10-30T13:28:59.209Z,6.88
2022-10-30T13:31:34.143Z,6.90
2022-10-30T13:34:05.312Z,6.68
2022-10-30T13:36:37.035Z,7.05
2022-10-30T13:39:14.847Z,6.80
2022-10-30T13:41:47.365Z,6.90
2022-10-30T13:44:19.728Z,6.47
2022-10-30T13:46:57.546Z,6.63
2022-10-30T13:49:35.352Z,6.60
2022-10-30T13:52:05.919Z,6.37
2022-10-30T13:54:39.160Z,6.10
2022-10-30T13:57:15.936Z,6.40
2022-10-30T13:59:49.145Z,6.50
2022-10-30T14:02:32.678Z,6.75
2022-10-30T14:05:04.940Z,6.67
2022-10-30T14:07:36.866Z,6.27
2022-10-30T14:10:08.741Z,6.68
2022-10-30T14:13:01.110Z,6.72
2022-10-30T14:15:33.499Z,7.28
2022-10-30T14:18:19.995Z,7.60
2022-10-30T14:20:52.339Z,8.23
2022-10-30T14:23:22.064Z,8.10
2022-10-30T14:26:13.216Z,8.27
2022-10-30T14:28:41.414Z,7.43
2022-10-30T14:31:10.333Z,8.88
2022-10-30T14:33:44.134Z,11.52
2022-10-30T14:36:18.133Z,11.37
2022-10-30T14:38:54.076Z,11.77
2022-10-30T14:41:36.727Z,9.13
2022-10-30T14:44:14.624Z,7.25
2022-10-30T14:46:45.646Z,7.70
2022-10-30T14:49:25.121Z,7.93
2022-10-30T14:51:58.707Z,8.25
2022-10-30T14:54:33.160Z,7.50
2022-10-30T14:57:00.901Z,7.47
2022-10-30T14:59:33.549Z,8.30
2022-10-30T15:02:04.918Z,8.10
2022-10-30T15:04:39.160Z,8.20
2022-10-30T15:07:09.972Z,8.30
2022-10-30T15:09:41.560Z,8.18
2022-10-30T15:12:34.416Z,8.33
2022-10-30T15:15:03.812Z,7.85
2022-10-30T15:17:34.094Z,7.22
2022-10-30T15:20:03.871Z,8.05
2022-10-30T15:22:34.045Z,8.73
2022-10-30T15:25:02.503Z,9.90
2022-10-30T15:27:32.123Z,9.73
2022-10-30T15:30:01.376Z,10.18
2022-10-30T15:32:30.374Z,9.55
2022-10-30T15:35:00.764Z,9.07
2022-10-30T15:37:29.066Z,9.80
2022-10-30T15:40:16.989Z,8.80
2022-10-30T15:42:45.544Z,9.80
2022-10-30T15:45:17.205Z,9.30
2022-10-30T15:47:46.364Z,8.63
2022-10-30T15:50:14.694Z,8.83
2022-10-30T15:52:43.443Z,8.40
2022-10-30T15:55:15.032Z,8.88
2022-10-30T16:00:35.600Z,9.13
2022-10-30T16:03:04.613Z,9.57
2022-10-30T16:05:32.539Z,8.23
2022-10-30T16:08:02.035Z,8.35
2022-10-30T16:10:34.355Z,8.80
2022-10-30T16:13:05.005Z,9.07
2022-10-30T16:15:34.126Z,10.07
2022-10-30T16:18:09.695Z,8.80
2022-10-30T16:20:38.141Z,9.82
2022-10-30T16:23:06.628Z,8.30
2022-10-30T16:25:37.411Z,10.20
2022-10-30T16:28:06.858Z,8.43
2022-10-30T16:30:35.017Z,9.60
2022-10-30T16:33:04.538Z,8.75
2022-10-30T16:35:32.231Z,9.13
2022-10-30T16:38:02.637Z,9.25
2022-10-30T16:40:31.560Z,10.95
2022-10-30T16:43:00.873Z,11.93
2022-10-30T16:45:56.191Z,10.53
2022-10-30T16:48:28.416Z,12.32
2022-10-30T16:51:03.891Z,12.07
2022-10-30T16:53:32.198Z,11.93
2022-10-30T16:56:00.448Z,9.90
2022-10-30T16:58:31.489Z,11.67
2022-10-30T17:01:03.717Z,13.25
2022-10-30T17:03:34.793Z,14.45
2022-10-30T17:06:03.683Z,15.73
2022-10-30T17:08:36.872Z,15.60
2022-10-30T17:11:05.659Z,15.52
2022-10-30T17:13:35.391Z,16.38
2022-10-30T17:16:21.756Z,15.73
2022-10-30T17:18:55.666Z,19.80
2022-10-30T17:21:24.603Z,17.10
2022-10-30T17:23:53.537Z,17.20
2022-10-30T17:26:21.459Z,17.10
2022-10-30T17:28:49.570Z,13.43
2022-10-30T17:31:25.204Z,14.03
2022-10-30T17:34:13.094Z,17.60
2022-10-30T17:36:41.126Z,23.25
2022-10-30T17:39:08.822Z,20.17
2022-10-30T17:41:39.554Z,16.83
2022-10-30T17:44:07.922Z,15.20
2022-10-30T17:46:35.644Z,14.30
2022-10-30T17:49:03.384Z,13.55
2022-10-30T17:51:35.492Z,13.02
2022-10-30T17:54:03.270Z,12.70
2022-10-30T17:56:32.416Z,12.90
2022-10-30T17:59:01.633Z,13.90
2022-10-30T18:01:29.714Z,13.52
2022-10-30T18:03:57.685Z,15.52
2022-10-30T18:06:26.333Z,16.77
2022-10-30T18:08:56.093Z,18.02
2022-10-30T18:11:24.708Z,15.10
2022-10-30T18:13:52.822Z,15.45
2022-10-30T18:16:21.460Z,15.23
2022-10-30T18:18:50.108Z,15.90
2022-10-30T18:21:18.956Z,17.27
2022-10-30T18:23:52.267Z,15.15
2022-10-30T18:26:22.927Z,12.95
2022-10-30T18:28:50.828Z,20.00
2022-10-30T18:31:19.529Z,11.93
2022-10-30T18:33:47.673Z,9.85
2022-10-30T18:36:16.597Z,7.38
2022-10-30T18:38:44.795Z,7.90
2022-10-30T18:41:15.517Z,9.03
2022-10-30T18:43:46.935Z,7.80
2022-10-30T18:46:15.594Z,7.93
2022-10-30T18:48:43.786Z,7.30
2022-10-30T18:51:15.635Z,8.30
2022-10-30T18:53:51.082Z,9.48
2022-10-30T18:56:19.333Z,8.98
2022-10-30T18:58:48.696Z,7.30
2022-10-30T19:01:17.277Z,6.30
2022-10-30T19:03:45.937Z,6.28
2022-10-30T19:06:14.635Z,6.60
2022-10-30T19:08:42.383Z,6.20
2022-10-30T19:11:11.679Z,5.77
2022-10-30T19:13:42.983Z,5.90
2022-10-30T19:16:15.159Z,4.75
2022-10-30T19:18:43.044Z,5.35
2022-10-30T19:21:17.647Z,4.80
2022-10-30T19:23:45.677Z,4.28
2022-10-30T19:26:14.681Z,3.70
2022-10-30T19:28:42.741Z,3.90
2022-10-30T19:31:13.831Z,4.60
2022-10-30T19:33:41.619Z,5.72
2022-10-30T19:36:25.372Z,6.77
2022-10-30T19:38:53.127Z,6.65
2022-10-30T19:41:20.917Z,7.73
2022-10-30T19:43:48.742Z,5.32
2022-10-30T19:46:17.778Z,5.93
2022-10-30T19:49:01.098Z,6.35
2022-10-30T19:51:29.114Z,5.70
2022-10-30T19:53:56.907Z,5.82
2022-10-30T19:56:24.873Z,5.82
2022-10-30T19:58:52.616Z,4.38
2022-10-30T20:01:21.953Z,3.78
2022-10-30T20:03:49.848Z,3.30
2022-10-30T20:06:18.903Z,3.13
2022-10-30T20:08:46.666Z,2.92
2022-10-30T20:11:14.328Z,3.10
2022-10-30T20:13:42.083Z,2.90
2022-10-30T20:16:12.041Z,3.30
2022-10-30T20:18:43.397Z,3.10
2022-10-30T20:21:12.577Z,4.70
2022-10-30T20:23:40.739Z,3.20
2022-10-30T20:26:12.886Z,3.13
2022-10-30T20:28:41.584Z,3.20
2022-10-30T20:31:13.532Z,2.80
2022-10-30T20:33:43.131Z,2.90
2022-10-30T20:36:11.624Z,2.80
2022-10-30T20:38:40.192Z,2.70
2022-10-30T20:41:08.320Z,3.50
2022-10-30T20:43:39.637Z,2.90
2022-10-30T20:46:09.211Z,3.57
2022-10-30T20:48:37.861Z,3.10
2022-10-30T20:51:07.337Z,2.70
2022-10-30T20:53:35.127Z,2.58
2022-10-30T20:56:02.877Z,2.42
2022-10-30T20:58:30.743Z,2.88
2022-10-30T21:00:59.035Z,2.70
2022-10-30T21:03:27.233Z,2.50
2022-10-30T21:05:56.047Z,2.70
2022-10-30T21:08:25.332Z,2.65
2022-10-30T21:10:53.042Z,2.90
2022-10-30T21:13:20.841Z,2.60
2022-10-30T21:15:48.585Z,2.78
2022-10-30T21:18:16.347Z,2.80
2022-10-30T21:20:44.148Z,2.97
2022-10-30T21:23:13.974Z,3.03
2022-10-30T21:25:44.793Z,3.30
2022-10-30T21:28:15.324Z,3.60
2022-10-30T21:30:45.493Z,4.30
2022-10-30T21:33:15.588Z,3.97
2022-10-30T21:35:43.340Z,4.27
2022-10-30T21:38:11.513Z,4.68
2022-10-30T21:40:39.293Z,4.30
2022-10-30T21:43:08.465Z,4.57
2022-10-30T21:45:37.635Z,3.80
2022-10-30T21:48:05.437Z,3.45
2022-10-30T21:50:34.138Z,3.30
2022-10-30T21:53:02.154Z,3.50
2022-10-30T21:55:30.136Z,3.43
2022-10-30T21:57:58.142Z,3.60
2022-10-30T22:00:27.423Z,3.25
2022-10-30T22:02:56.934Z,3.63
2022-10-30T22:05:24.729Z,3.25
2022-10-30T22:07:52.685Z,3.97
2022-10-30T22:10:20.464Z,4.00
2022-10-30T22:12:48.204Z,4.10
2022-10-30T22:15:16.081Z,4.22
2022-10-30T22:17:45.213Z,4.10
2022-10-30T22:20:13.208Z,3.47
2022-10-30T22:22:40.928Z,3.38
2022-10-30T22:25:08.949Z,2.88
2022-10-30T22:27:36.614Z,2.83
2022-10-30T22:30:04.550Z,2.78
2022-10-30T22:32:32.287Z,2.40
2022-10-30T22:35:02.155Z,2.55
2022-10-30T22:37:29.915Z,2.50
2022-10-30T22:39:57.642Z,2.73
2022-10-30T22:42:25.449Z,2.50
2022-10-30T22:44:53.685Z,2.65
2022-10-30T22:47:21.425Z,2.60
2022-10-30T22:49:49.282Z,3.10
2022-10-30T22:52:18.387Z,2.80
2022-10-30T22:54:46.152Z,3.00
2022-10-30T22:57:13.924Z,2.70
2022-10-30T22:59:41.669Z,2.70
2022-10-30T23:02:09.464Z,2.77
2022-10-30T23:04:37.292Z,2.85
2022-10-30T23:07:05.014Z,2.63
2022-10-30T23:09:34.277Z,2.80
2022-10-30T23:12:01.963Z,2.70
2022-10-30T23:14:29.797Z,2.70
2022-10-30T23:16:57.517Z,2.77
2022-10-30T23:19:26.398Z,2.67
2022-10-30T23:21:55.683Z,2.55
2022-10-30T23:24:23.499Z,2.67
2022-10-30T23:26:53.017Z,3.10
2022-10-30T23:29:21.112Z,2.47
2022-10-30T23:31:48.853Z,3.15
2022-10-30T23:34:17.694Z,2.70
2022-10-30T23:36:45.775Z,2.60
2022-10-30T23:39:14.955Z,2.90
2022-10-30T23:41:42.745Z,2.88
2022-10-30T23:44:13.979Z,2.70
2022-10-30T23:46:41.830Z,2.53
2022-10-30T23:49:09.637Z,2.97
2022-10-30T23:51:37.517Z,2.80
2022-10-30T23:54:05.513Z,2.83
2022-10-30T23:56:33.414Z,2.72
2022-10-30T23:59:01.249Z,3.65
